sensor_id;sensor_type;location;lat;lon;timestamp;P1;durP1;ratioP1;P2;durP2;ratioP2
74543;SDS011;63016;55.030;38.710;2023-06-10T00:02:07;4.93;;;3.03;;
74543;SDS011;63016;55.030;38.710;2023-06-10T00:04:33;4.32;;;2.88;;
74543;SDS011;63016;55.030;38.710;2023-06-10T00:06:58;5.10;;;3.10;;
74543;SDS011;63016;55.030;38.710;2023-06-10T00:09:24;4.05;;;2.85;;
74543;SDS011;63016;55.030;38.710;2023-06-10T00:11:50;6.05;;;3.42;;
74543;SDS011;63016;55.030;38.710;2023-06-10T00:14:16;4.00;;;2.90;;
74543;SDS011;63016;55.030;38.710;2023-06-10T00:16:41;5.90;;;2.53;;
74543;SDS011;63016;55.030;38.710;2023-06-10T00:19:10;6.43;;;2.47;;
74543;SDS011;63016;55.030;38.710;2023-06-10T00:21:38;3.80;;;2.95;;
74543;SDS011;63016;55.030;38.710;2023-06-10T00:24:05;4.72;;;2.50;;
74543;SDS011;63016;55.030;38.710;2023-06-10T00:26:31;2.85;;;1.98;;
74543;SDS011;63016;55.030;38.710;2023-06-10T00:28:58;4.32;;;2.05;;
74543;SDS011;63016;55.030;38.710;2023-06-10T00:31:24;7.15;;;2.40;;
74543;SDS011;63016;55.030;38.710;2023-06-10T00:33:51;4.13;;;2.00;;
74543;SDS011;63016;55.030;38.710;2023-06-10T00:36:17;3.28;;;1.88;;
74543;SDS011;63016;55.030;38.710;2023-06-10T00:38:42;7.53;;;1.90;;
74543;SDS011;63016;55.030;38.710;2023-06-10T00:41:08;2.15;;;1.67;;
74543;SDS011;63016;55.030;38.710;2023-06-10T00:43:33;3.40;;;1.95;;
74543;SDS011;63016;55.030;38.710;2023-06-10T00:45:59;4.10;;;1.85;;
74543;SDS011;63016;55.030;38.710;2023-06-10T00:48:25;6.78;;;2.05;;
74543;SDS011;63016;55.030;38.710;2023-06-10T00:50:52;5.40;;;1.50;;
74543;SDS011;63016;55.030;38.710;2023-06-10T00:53:17;2.28;;;1.83;;
74543;SDS011;63016;55.030;38.710;2023-06-10T00:55:43;3.45;;;1.98;;
74543;SDS011;63016;55.030;38.710;2023-06-10T00:58:09;2.63;;;1.95;;
74543;SDS011;63016;55.030;38.710;2023-06-10T01:00:35;3.28;;;1.95;;
74543;SDS011;63016;55.030;38.710;2023-06-10T01:03:01;2.95;;;1.77;;
74543;SDS011;63016;55.030;38.710;2023-06-10T01:05:32;2.63;;;1.90;;
74543;SDS011;63016;55.030;38.710;2023-06-10T01:10:55;4.95;;;2.20;;
74543;SDS011;63016;55.030;38.710;2023-06-10T01:13:25;2.20;;;1.75;;
74543;SDS011;63016;55.030;38.710;2023-06-10T01:15:54;3.45;;;1.95;;
74543;SDS011;63016;55.030;38.710;2023-06-10T01:18:21;2.72;;;1.80;;
74543;SDS011;63016;55.030;38.710;2023-06-10T01:20:47;3.50;;;1.60;;
74543;SDS011;63016;55.030;38.710;2023-06-10T01:23:14;3.25;;;1.60;;
74543;SDS011;63016;55.030;38.710;2023-06-10T01:25:41;3.70;;;1.70;;
74543;SDS011;63016;55.030;38.710;2023-06-10T01:31:41;3.42;;;1.30;;
74543;SDS011;63016;55.030;38.710;2023-06-10T01:33:47;4.10;;;1.67;;
74543;SDS011;63016;55.030;38.710;2023-06-10T01:36:16;2.22;;;1.77;;
74543;SDS011;63016;55.030;38.710;2023-06-10T01:38:43;4.70;;;1.58;;
74543;SDS011;63016;55.030;38.710;2023-06-10T01:41:10;2.60;;;1.48;;
74543;SDS011;63016;55.030;38.710;2023-06-10T01:43:38;8.25;;;1.60;;
74543;SDS011;63016;55.030;38.710;2023-06-10T01:46:04;2.92;;;1.58;;
74543;SDS011;63016;55.030;38.710;2023-06-10T01:48:30;3.03;;;1.40;;
74543;SDS011;63016;55.030;38.710;2023-06-10T01:50:55;5.05;;;1.45;;
74543;SDS011;63016;55.030;38.710;2023-06-10T01:53:21;2.33;;;1.50;;
74543;SDS011;63016;55.030;38.710;2023-06-10T01:55:47;3.53;;;1.50;;
74543;SDS011;63016;55.030;38.710;2023-06-10T01:58:13;2.05;;;1.38;;
74543;SDS011;63016;55.030;38.710;2023-06-10T02:00:38;1.80;;;1.20;;
74543;SDS011;63016;55.030;38.710;2023-06-10T02:03:04;4.03;;;1.60;;
74543;SDS011;63016;55.030;38.710;2023-06-10T02:05:30;6.22;;;1.70;;
74543;SDS011;63016;55.030;38.710;2023-06-10T02:07:55;2.15;;;1.50;;
74543;SDS011;63016;55.030;38.710;2023-06-10T02:10:21;2.20;;;1.27;;
74543;SDS011;63016;55.030;38.710;2023-06-10T02:12:46;6.05;;;1.23;;
74543;SDS011;63016;55.030;38.710;2023-06-10T02:15:12;2.00;;;1.40;;
74543;SDS011;63016;55.030;38.710;2023-06-10T02:17:37;1.92;;;1.20;;
74543;SDS011;63016;55.030;38.710;2023-06-10T02:20:03;5.25;;;1.35;;
74543;SDS011;63016;55.030;38.710;2023-06-10T02:22:32;3.85;;;1.60;;
74543;SDS011;63016;55.030;38.710;2023-06-10T02:24:58;1.33;;;1.10;;
74543;SDS011;63016;55.030;38.710;2023-06-10T02:27:23;3.05;;;1.20;;
74543;SDS011;63016;55.030;38.710;2023-06-10T02:29:49;1.55;;;1.20;;
74543;SDS011;63016;55.030;38.710;2023-06-10T02:32:15;5.75;;;1.23;;
74543;SDS011;63016;55.030;38.710;2023-06-10T02:34:40;2.35;;;1.20;;
74543;SDS011;63016;55.030;38.710;2023-06-10T02:37:07;2.08;;;1.33;;
74543;SDS011;63016;55.030;38.710;2023-06-10T02:39:33;2.22;;;1.33;;
74543;SDS011;63016;55.030;38.710;2023-06-10T02:41:59;2.15;;;1.15;;
74543;SDS011;63016;55.030;38.710;2023-06-10T02:44:24;4.25;;;1.52;;
74543;SDS011;63016;55.030;38.710;2023-06-10T02:46:50;1.55;;;1.20;;
74543;SDS011;63016;55.030;38.710;2023-06-10T02:49:15;2.17;;;1.10;;
74543;SDS011;63016;55.030;38.710;2023-06-10T02:51:41;1.55;;;1.10;;
74543;SDS011;63016;55.030;38.710;2023-06-10T02:54:06;2.88;;;1.23;;
74543;SDS011;63016;55.030;38.710;2023-06-10T02:56:32;1.08;;;0.95;;
74543;SDS011;63016;55.030;38.710;2023-06-10T02:58:58;1.58;;;1.15;;
74543;SDS011;63016;55.030;38.710;2023-06-10T03:01:24;2.88;;;1.27;;
74543;SDS011;63016;55.030;38.710;2023-06-10T03:03:49;1.50;;;1.00;;
74543;SDS011;63016;55.030;38.710;2023-06-10T03:06:15;7.05;;;1.45;;
74543;SDS011;63016;55.030;38.710;2023-06-10T03:08:41;2.10;;;1.15;;
74543;SDS011;63016;55.030;38.710;2023-06-10T03:11:07;2.78;;;1.20;;
74543;SDS011;63016;55.030;38.710;2023-06-10T03:13:33;2.15;;;0.93;;
74543;SDS011;63016;55.030;38.710;2023-06-10T03:15:58;1.55;;;0.90;;
74543;SDS011;63016;55.030;38.710;2023-06-10T03:18:25;2.10;;;1.15;;
74543;SDS011;63016;55.030;38.710;2023-06-10T03:20:52;1.25;;;0.80;;
74543;SDS011;63016;55.030;38.710;2023-06-10T03:23:17;6.00;;;1.02;;
74543;SDS011;63016;55.030;38.710;2023-06-10T03:25:43;3.38;;;0.95;;
74543;SDS011;63016;55.030;38.710;2023-06-10T03:28:10;3.55;;;1.42;;
74543;SDS011;63016;55.030;38.710;2023-06-10T03:30:35;2.50;;;0.90;;
74543;SDS011;63016;55.030;38.710;2023-06-10T03:33:01;5.78;;;1.00;;
74543;SDS011;63016;55.030;38.710;2023-06-10T03:35:26;3.38;;;1.10;;
74543;SDS011;63016;55.030;38.710;2023-06-10T03:37:52;2.05;;;0.88;;
74543;SDS011;63016;55.030;38.710;2023-06-10T03:40:17;1.90;;;0.98;;
74543;SDS011;63016;55.030;38.710;2023-06-10T03:42:43;9.55;;;1.00;;
74543;SDS011;63016;55.030;38.710;2023-06-10T03:45:09;1.83;;;0.80;;
74543;SDS011;63016;55.030;38.710;2023-06-10T03:47:35;3.70;;;1.10;;
74543;SDS011;63016;55.030;38.710;2023-06-10T03:50:02;1.85;;;1.00;;
74543;SDS011;63016;55.030;38.710;2023-06-10T03:52:29;2.83;;;0.90;;
74543;SDS011;63016;55.030;38.710;2023-06-10T03:54:55;6.13;;;0.93;;
74543;SDS011;63016;55.030;38.710;2023-06-10T03:57:20;2.80;;;0.90;;
74543;SDS011;63016;55.030;38.710;2023-06-10T03:59:46;1.50;;;0.90;;
74543;SDS011;63016;55.030;38.710;2023-06-10T04:02:11;2.63;;;1.00;;
74543;SDS011;63016;55.030;38.710;2023-06-10T04:04:37;1.75;;;0.90;;
74543;SDS011;63016;55.030;38.710;2023-06-10T04:07:03;2.10;;;1.17;;
74543;SDS011;63016;55.030;38.710;2023-06-10T04:09:31;2.45;;;1.10;;
74543;SDS011;63016;55.030;38.710;2023-06-10T04:11:57;1.80;;;1.00;;
74543;SDS011;63016;55.030;38.710;2023-06-10T04:14:22;2.28;;;0.90;;
74543;SDS011;63016;55.030;38.710;2023-06-10T04:16:48;2.00;;;1.20;;
74543;SDS011;63016;55.030;38.710;2023-06-10T04:19:13;2.42;;;0.90;;
74543;SDS011;63016;55.030;38.710;2023-06-10T04:21:38;2.15;;;1.00;;
74543;SDS011;63016;55.030;38.710;2023-06-10T04:24:04;2.80;;;1.00;;
74543;SDS011;63016;55.030;38.710;2023-06-10T04:26:30;2.72;;;1.10;;
74543;SDS011;63016;55.030;38.710;2023-06-10T04:28:55;1.30;;;1.00;;
74543;SDS011;63016;55.030;38.710;2023-06-10T04:31:20;3.03;;;1.08;;
74543;SDS011;63016;55.030;38.710;2023-06-10T04:33:46;3.42;;;0.95;;
74543;SDS011;63016;55.030;38.710;2023-06-10T04:36:11;2.00;;;0.93;;
74543;SDS011;63016;55.030;38.710;2023-06-10T04:38:37;3.90;;;0.90;;
74543;SDS011;63016;55.030;38.710;2023-06-10T04:41:02;1.65;;;0.98;;
74543;SDS011;63016;55.030;38.710;2023-06-10T04:43:29;1.10;;;0.80;;
74543;SDS011;63016;55.030;38.710;2023-06-10T04:45:55;1.17;;;0.82;;
74543;SDS011;63016;55.030;38.710;2023-06-10T04:48:21;2.85;;;0.80;;
74543;SDS011;63016;55.030;38.710;2023-06-10T04:50:46;1.38;;;0.88;;
74543;SDS011;63016;55.030;38.710;2023-06-10T04:53:11;1.15;;;0.80;;
74543;SDS011;63016;55.030;38.710;2023-06-10T04:55:37;2.47;;;0.73;;
74543;SDS011;63016;55.030;38.710;2023-06-10T04:58:02;3.42;;;0.80;;
74543;SDS011;63016;55.030;38.710;2023-06-10T05:00:28;2.60;;;0.98;;
74543;SDS011;63016;55.030;38.710;2023-06-10T05:02:53;2.78;;;0.80;;
74543;SDS011;63016;55.030;38.710;2023-06-10T05:05:21;1.17;;;0.70;;
74543;SDS011;63016;55.030;38.710;2023-06-10T05:07:46;0.80;;;0.60;;
74543;SDS011;63016;55.030;38.710;2023-06-10T05:10:12;4.45;;;0.75;;
74543;SDS011;63016;55.030;38.710;2023-06-10T05:12:38;1.23;;;0.70;;
74543;SDS011;63016;55.030;38.710;2023-06-10T05:15:04;2.63;;;0.80;;
74543;SDS011;63016;55.030;38.710;2023-06-10T05:17:30;3.85;;;0.77;;
74543;SDS011;63016;55.030;38.710;2023-06-10T05:19:56;1.88;;;0.80;;
74543;SDS011;63016;55.030;38.710;2023-06-10T05:22:21;4.05;;;0.73;;
74543;SDS011;63016;55.030;38.710;2023-06-10T05:24:49;3.42;;;0.80;;
74543;SDS011;63016;55.030;38.710;2023-06-10T05:27:14;2.65;;;1.13;;
74543;SDS011;63016;55.030;38.710;2023-06-10T05:29:40;2.60;;;0.60;;
74543;SDS011;63016;55.030;38.710;2023-06-10T05:32:05;3.97;;;0.80;;
74543;SDS011;63016;55.030;38.710;2023-06-10T05:34:31;5.70;;;0.80;;
74543;SDS011;63016;55.030;38.710;2023-06-10T05:36:57;2.00;;;0.80;;
74543;SDS011;63016;55.030;38.710;2023-06-10T05:39:23;1.20;;;0.60;;
74543;SDS011;63016;55.030;38.710;2023-06-10T05:41:48;1.55;;;0.60;;
74543;SDS011;63016;55.030;38.710;2023-06-10T05:44:14;1.73;;;0.70;;
74543;SDS011;63016;55.030;38.710;2023-06-10T05:46:40;0.70;;;0.68;;
74543;SDS011;63016;55.030;38.710;2023-06-10T05:49:05;3.97;;;0.60;;
74543;SDS011;63016;55.030;38.710;2023-06-10T05:51:31;0.70;;;0.70;;
74543;SDS011;63016;55.030;38.710;2023-06-10T05:53:56;3.83;;;0.68;;
74543;SDS011;63016;55.030;38.710;2023-06-10T05:56:22;0.70;;;0.70;;
74543;SDS011;63016;55.030;38.710;2023-06-10T05:58:48;1.00;;;0.60;;
74543;SDS011;63016;55.030;38.710;2023-06-10T06:01:14;1.50;;;0.70;;
74543;SDS011;63016;55.030;38.710;2023-06-10T06:03:39;1.17;;;0.60;;
74543;SDS011;63016;55.030;38.710;2023-06-10T06:06:05;4.97;;;0.73;;
74543;SDS011;63016;55.030;38.710;2023-06-10T06:08:30;4.28;;;0.77;;
74543;SDS011;63016;55.030;38.710;2023-06-10T06:10:56;4.30;;;0.73;;
74543;SDS011;63016;55.030;38.710;2023-06-10T06:13:22;0.70;;;0.68;;
74543;SDS011;63016;55.030;38.710;2023-06-10T06:15:47;1.67;;;0.68;;
74543;SDS011;63016;55.030;38.710;2023-06-10T06:18:13;1.60;;;0.75;;
74543;SDS011;63016;55.030;38.710;2023-06-10T06:20:38;1.15;;;0.80;;
74543;SDS011;63016;55.030;38.710;2023-06-10T06:23:03;4.57;;;0.65;;
74543;SDS011;63016;55.030;38.710;2023-06-10T06:25:29;1.17;;;0.80;;
74543;SDS011;63016;55.030;38.710;2023-06-10T06:27:54;2.97;;;0.65;;
74543;SDS011;63016;55.030;38.710;2023-06-10T06:30:20;0.70;;;0.60;;
74543;SDS011;63016;55.030;38.710;2023-06-10T06:32:45;3.42;;;0.60;;
74543;SDS011;63016;55.030;38.710;2023-06-10T06:35:11;2.35;;;0.85;;
74543;SDS011;63016;55.030;38.710;2023-06-10T06:37:36;0.50;;;0.50;;
74543;SDS011;63016;55.030;38.710;2023-06-10T06:40:02;1.65;;;0.60;;
74543;SDS011;63016;55.030;38.710;2023-06-10T06:42:28;1.73;;;0.50;;
74543;SDS011;63016;55.030;38.710;2023-06-10T06:44:54;1.20;;;0.60;;
74543;SDS011;63016;55.030;38.710;2023-06-10T06:47:19;0.60;;;0.60;;
74543;SDS011;63016;55.030;38.710;2023-06-10T06:49:46;4.57;;;0.63;;
74543;SDS011;63016;55.030;38.710;2023-06-10T06:52:12;1.35;;;0.65;;
74543;SDS011;63016;55.030;38.710;2023-06-10T06:54:38;1.85;;;0.60;;
74543;SDS011;63016;55.030;38.710;2023-06-10T06:57:03;2.50;;;0.70;;
74543;SDS011;63016;55.030;38.710;2023-06-10T06:59:29;3.70;;;0.60;;
74543;SDS011;63016;55.030;38.710;2023-06-10T07:01:54;1.15;;;0.50;;
74543;SDS011;63016;55.030;38.710;2023-06-10T07:04:20;1.90;;;0.50;;
74543;SDS011;63016;55.030;38.710;2023-06-10T07:06:48;1.23;;;0.40;;
74543;SDS011;63016;55.030;38.710;2023-06-10T07:09:14;2.55;;;0.60;;
74543;SDS011;63016;55.030;38.710;2023-06-10T07:11:39;0.80;;;0.60;;
74543;SDS011;63016;55.030;38.710;2023-06-10T07:14:04;2.83;;;0.60;;
74543;SDS011;63016;55.030;38.710;2023-06-10T07:16:31;1.13;;;0.73;;
74543;SDS011;63016;55.030;38.710;2023-06-10T07:18:57;3.95;;;1.00;;
74543;SDS011;63016;55.030;38.710;2023-06-10T07:21:23;1.25;;;0.90;;
74543;SDS011;63016;55.030;38.710;2023-06-10T07:23:48;1.88;;;0.80;;
74543;SDS011;63016;55.030;38.710;2023-06-10T07:26:17;4.57;;;0.93;;
74543;SDS011;63016;55.030;38.710;2023-06-10T07:28:42;2.50;;;0.80;;
74543;SDS011;63016;55.030;38.710;2023-06-10T07:31:08;1.98;;;1.00;;
74543;SDS011;63016;55.030;38.710;2023-06-10T07:33:34;1.10;;;0.80;;
74543;SDS011;63016;55.030;38.710;2023-06-10T07:36:00;1.92;;;1.00;;
74543;SDS011;63016;55.030;38.710;2023-06-10T07:38:25;1.42;;;0.80;;
74543;SDS011;63016;55.030;38.710;2023-06-10T07:40:51;2.22;;;1.00;;
74543;SDS011;63016;55.030;38.710;2023-06-10T07:43:17;1.55;;;1.00;;
74543;SDS011;63016;55.030;38.710;2023-06-10T07:45:43;1.33;;;0.73;;
74543;SDS011;63016;55.030;38.710;2023-06-10T07:48:09;1.52;;;0.80;;
74543;SDS011;63016;55.030;38.710;2023-06-10T07:50:34;1.88;;;0.80;;
74543;SDS011;63016;55.030;38.710;2023-06-10T07:53:00;1.83;;;0.88;;
74543;SDS011;63016;55.030;38.710;2023-06-10T07:55:26;2.03;;;0.90;;
74543;SDS011;63016;55.030;38.710;2023-06-10T07:57:54;2.88;;;0.90;;
74543;SDS011;63016;55.030;38.710;2023-06-10T08:00:20;6.85;;;1.00;;
74543;SDS011;63016;55.030;38.710;2023-06-10T08:02:46;9.85;;;1.05;;
74543;SDS011;63016;55.030;38.710;2023-06-10T08:05:12;1.00;;;0.80;;
74543;SDS011;63016;55.030;38.710;2023-06-10T08:07:41;6.07;;;0.90;;
74543;SDS011;63016;55.030;38.710;2023-06-10T08:10:08;1.73;;;0.80;;
74543;SDS011;63016;55.030;38.710;2023-06-10T08:12:34;1.35;;;0.90;;
74543;SDS011;63016;55.030;38.710;2023-06-10T08:15:00;2.10;;;0.90;;
74543;SDS011;63016;55.030;38.710;2023-06-10T08:17:26;1.25;;;0.85;;
74543;SDS011;63016;55.030;38.710;2023-06-10T08:19:51;1.55;;;0.80;;
74543;SDS011;63016;55.030;38.710;2023-06-10T08:22:17;1.77;;;0.80;;
74543;SDS011;63016;55.030;38.710;2023-06-10T08:24:43;3.95;;;0.80;;
74543;SDS011;63016;55.030;38.710;2023-06-10T08:27:08;2.47;;;0.80;;
74543;SDS011;63016;55.030;38.710;2023-06-10T08:29:35;0.80;;;0.75;;
74543;SDS011;63016;55.030;38.710;2023-06-10T08:32:00;3.30;;;0.90;;
74543;SDS011;63016;55.030;38.710;2023-06-10T08:34:26;1.90;;;0.90;;
74543;SDS011;63016;55.030;38.710;2023-06-10T08:36:51;3.30;;;0.80;;
74543;SDS011;63016;55.030;38.710;2023-06-10T08:39:20;1.67;;;0.70;;
74543;SDS011;63016;55.030;38.710;2023-06-10T08:41:49;3.42;;;0.85;;
74543;SDS011;63016;55.030;38.710;2023-06-10T08:44:27;0.70;;;0.70;;
74543;SDS011;63016;55.030;38.710;2023-06-10T08:46:55;3.45;;;0.70;;
74543;SDS011;63016;55.030;38.710;2023-06-10T08:49:24;1.08;;;0.63;;
74543;SDS011;63016;55.030;38.710;2023-06-10T08:51:51;2.25;;;0.73;;
74543;SDS011;63016;55.030;38.710;2023-06-10T08:54:25;2.35;;;0.90;;
74543;SDS011;63016;55.030;38.710;2023-06-10T08:56:53;1.77;;;0.70;;
74543;SDS011;63016;55.030;38.710;2023-06-10T08:59:20;3.10;;;0.77;;
74543;SDS011;63016;55.030;38.710;2023-06-10T09:01:47;2.55;;;0.80;;
74543;SDS011;63016;55.030;38.710;2023-06-10T09:04:13;2.83;;;0.80;;
74543;SDS011;63016;55.030;38.710;2023-06-10T09:06:38;2.80;;;0.80;;
74543;SDS011;63016;55.030;38.710;2023-06-10T09:09:06;1.25;;;0.80;;
74543;SDS011;63016;55.030;38.710;2023-06-10T09:11:32;2.00;;;0.70;;
74543;SDS011;63016;55.030;38.710;2023-06-10T09:13:58;1.45;;;0.80;;
74543;SDS011;63016;55.030;38.710;2023-06-10T09:16:27;3.25;;;0.80;;
74543;SDS011;63016;55.030;38.710;2023-06-10T09:18:53;3.67;;;0.93;;
74543;SDS011;63016;55.030;38.710;2023-06-10T09:21:23;5.05;;;0.90;;
74543;SDS011;63016;55.030;38.710;2023-06-10T09:23:49;1.45;;;0.70;;
74543;SDS011;63016;55.030;38.710;2023-06-10T09:26:15;3.15;;;0.80;;
74543;SDS011;63016;55.030;38.710;2023-06-10T09:28:44;1.90;;;0.73;;
74543;SDS011;63016;55.030;38.710;2023-06-10T09:31:13;5.30;;;0.57;;
74543;SDS011;63016;55.030;38.710;2023-06-10T09:33:39;1.23;;;0.65;;
74543;SDS011;63016;55.030;38.710;2023-06-10T09:36:05;1.92;;;0.70;;
74543;SDS011;63016;55.030;38.710;2023-06-10T09:38:31;5.35;;;0.63;;
74543;SDS011;63016;55.030;38.710;2023-06-10T09:40:58;3.70;;;0.80;;
74543;SDS011;63016;55.030;38.710;2023-06-10T09:43:44;1.52;;;0.70;;
74543;SDS011;63016;55.030;38.710;2023-06-10T09:46:20;0.80;;;0.60;;
74543;SDS011;63016;55.030;38.710;2023-06-10T09:48:46;6.30;;;0.90;;
74543;SDS011;63016;55.030;38.710;2023-06-10T09:51:13;2.25;;;0.60;;
74543;SDS011;63016;55.030;38.710;2023-06-10T09:53:39;1.58;;;0.60;;
74543;SDS011;63016;55.030;38.710;2023-06-10T09:56:05;2.20;;;0.60;;
74543;SDS011;63016;55.030;38.710;2023-06-10T09:58:40;3.35;;;0.70;;
74543;SDS011;63016;55.030;38.710;2023-06-10T10:01:08;2.58;;;0.70;;
74543;SDS011;63016;55.030;38.710;2023-06-10T10:03:45;2.17;;;0.70;;
74543;SDS011;63016;55.030;38.710;2023-06-10T10:06:18;1.15;;;0.80;;
74543;SDS011;63016;55.030;38.710;2023-06-10T10:08:46;4.78;;;1.48;;
74543;SDS011;63016;55.030;38.710;2023-06-10T10:11:14;2.50;;;1.50;;
74543;SDS011;63016;55.030;38.710;2023-06-10T10:13:42;1.23;;;0.68;;
74543;SDS011;63016;55.030;38.710;2023-06-10T10:16:17;2.97;;;0.80;;
74543;SDS011;63016;55.030;38.710;2023-06-10T10:18:52;2.58;;;0.70;;
74543;SDS011;63016;55.030;38.710;2023-06-10T10:21:23;5.35;;;0.68;;
74543;SDS011;63016;55.030;38.710;2023-06-10T10:26:23;2.00;;;0.80;;
74543;SDS011;63016;55.030;38.710;2023-06-10T10:28:53;8.32;;;1.38;;
74543;SDS011;63016;55.030;38.710;2023-06-10T10:31:42;1.08;;;0.65;;
74543;SDS011;63016;55.030;38.710;2023-06-10T10:34:18;3.95;;;0.90;;
74543;SDS011;63016;55.030;38.710;2023-06-10T10:36:49;2.60;;;1.00;;
74543;SDS011;63016;55.030;38.710;2023-06-10T10:39:15;1.27;;;0.70;;
74543;SDS011;63016;55.030;38.710;2023-06-10T10:41:42;3.15;;;0.85;;
74543;SDS011;63016;55.030;38.710;2023-06-10T10:44:08;0.88;;;0.60;;
74543;SDS011;63016;55.030;38.710;2023-06-10T10:46:41;4.50;;;0.50;;
74543;SDS011;63016;55.030;38.710;2023-06-10T10:49:08;1.40;;;0.70;;
74543;SDS011;63016;55.030;38.710;2023-06-10T10:51:35;1.67;;;0.60;;
74543;SDS011;63016;55.030;38.710;2023-06-10T10:54:11;3.03;;;0.90;;
74543;SDS011;63016;55.030;38.710;2023-06-10T10:56:38;2.03;;;0.68;;
74543;SDS011;63016;55.030;38.710;2023-06-10T10:59:05;0.82;;;0.65;;
74543;SDS011;63016;55.030;38.710;2023-06-10T11:01:40;1.80;;;0.70;;
74543;SDS011;63016;55.030;38.710;2023-06-10T11:04:07;3.13;;;0.82;;
74543;SDS011;63016;55.030;38.710;2023-06-10T11:06:36;1.83;;;0.43;;
74543;SDS011;63016;55.030;38.710;2023-06-10T11:09:02;4.53;;;0.70;;
74543;SDS011;63016;55.030;38.710;2023-06-10T11:11:51;3.40;;;0.57;;
74543;SDS011;63016;55.030;38.710;2023-06-10T11:14:25;1.00;;;0.50;;
74543;SDS011;63016;55.030;38.710;2023-06-10T11:16:53;1.40;;;0.52;;
74543;SDS011;63016;55.030;38.710;2023-06-10T11:19:35;2.97;;;0.60;;
74543;SDS011;63016;55.030;38.710;2023-06-10T11:22:06;1.13;;;0.60;;
74543;SDS011;63016;55.030;38.710;2023-06-10T11:24:33;1.58;;;0.50;;
74543;SDS011;63016;55.030;38.710;2023-06-10T11:29:57;1.23;;;0.60;;
74543;SDS011;63016;55.030;38.710;2023-06-10T11:32:25;1.65;;;0.70;;
74543;SDS011;63016;55.030;38.710;2023-06-10T11:34:55;3.83;;;0.70;;
74543;SDS011;63016;55.030;38.710;2023-06-10T11:37:21;2.42;;;0.80;;
74543;SDS011;63016;55.030;38.710;2023-06-10T11:39:47;2.45;;;0.98;;
74543;SDS011;63016;55.030;38.710;2023-06-10T11:42:16;1.52;;;0.57;;
74543;SDS011;63016;55.030;38.710;2023-06-10T11:44:52;0.73;;;0.60;;
74543;SDS011;63016;55.030;38.710;2023-06-10T11:47:18;1.27;;;0.55;;
74543;SDS011;63016;55.030;38.710;2023-06-10T11:49:45;1.35;;;0.60;;
74543;SDS011;63016;55.030;38.710;2023-06-10T11:52:25;0.98;;;0.40;;
74543;SDS011;63016;55.030;38.710;2023-06-10T11:54:55;2.90;;;0.60;;
74543;SDS011;63016;55.030;38.710;2023-06-10T11:57:21;0.95;;;0.55;;
74543;SDS011;63016;55.030;38.710;2023-06-10T11:59:46;2.00;;;0.50;;
74543;SDS011;63016;55.030;38.710;2023-06-10T12:02:18;1.50;;;0.40;;
74543;SDS011;63016;55.030;38.710;2023-06-10T12:04:44;3.42;;;0.70;;
74543;SDS011;63016;55.030;38.710;2023-06-10T12:07:16;2.55;;;0.57;;
74543;SDS011;63016;55.030;38.710;2023-06-10T12:09:43;1.35;;;0.50;;
74543;SDS011;63016;55.030;38.710;2023-06-10T12:12:09;1.00;;;0.50;;
74543;SDS011;63016;55.030;38.710;2023-06-10T12:20:01;4.05;;;0.68;;
74543;SDS011;63016;55.030;38.710;2023-06-10T12:22:43;2.03;;;0.40;;
74543;SDS011;63016;55.030;38.710;2023-06-10T12:25:10;2.42;;;0.70;;
74543;SDS011;63016;55.030;38.710;2023-06-10T12:27:36;1.02;;;0.52;;
74543;SDS011;63016;55.030;38.710;2023-06-10T12:30:03;1.77;;;0.45;;
74543;SDS011;63016;55.030;38.710;2023-06-10T12:32:40;2.25;;;0.55;;
74543;SDS011;63016;55.030;38.710;2023-06-10T12:35:08;3.50;;;0.60;;
74543;SDS011;63016;55.030;38.710;2023-06-10T12:37:35;1.25;;;0.60;;
74543;SDS011;63016;55.030;38.710;2023-06-10T12:40:03;1.25;;;0.50;;
74543;SDS011;63016;55.030;38.710;2023-06-10T12:42:30;2.10;;;0.40;;
74543;SDS011;63016;55.030;38.710;2023-06-10T12:44:58;1.55;;;0.60;;
74543;SDS011;63016;55.030;38.710;2023-06-10T12:47:33;4.47;;;0.45;;
74543;SDS011;63016;55.030;38.710;2023-06-10T12:50:04;0.70;;;0.43;;
74543;SDS011;63016;55.030;38.710;2023-06-10T12:52:30;0.70;;;0.50;;
74543;SDS011;63016;55.030;38.710;2023-06-10T12:54:56;1.15;;;0.50;;
74543;SDS011;63016;55.030;38.710;2023-06-10T12:57:22;1.75;;;0.50;;
74543;SDS011;63016;55.030;38.710;2023-06-10T12:59:47;2.47;;;0.50;;
74543;SDS011;63016;55.030;38.710;2023-06-10T13:02:22;1.95;;;0.50;;
74543;SDS011;63016;55.030;38.710;2023-06-10T13:04:49;0.90;;;0.52;;
74543;SDS011;63016;55.030;38.710;2023-06-10T13:07:15;3.72;;;0.70;;
74543;SDS011;63016;55.030;38.710;2023-06-10T13:09:41;2.33;;;0.63;;
74543;SDS011;63016;55.030;38.710;2023-06-10T13:12:07;2.78;;;0.70;;
74543;SDS011;63016;55.030;38.710;2023-06-10T13:14:33;11.30;;;0.73;;
74543;SDS011;63016;55.030;38.710;2023-06-10T13:16:58;4.57;;;0.70;;
74543;SDS011;63016;55.030;38.710;2023-06-10T13:19:24;1.90;;;0.50;;
74543;SDS011;63016;55.030;38.710;2023-06-10T13:21:49;1.35;;;0.50;;
74543;SDS011;63016;55.030;38.710;2023-06-10T13:24:15;3.83;;;0.57;;
74543;SDS011;63016;55.030;38.710;2023-06-10T13:26:40;4.35;;;0.50;;
74543;SDS011;63016;55.030;38.710;2023-06-10T13:29:06;0.98;;;0.40;;
74543;SDS011;63016;55.030;38.710;2023-06-10T13:31:33;3.22;;;0.45;;
74543;SDS011;63016;55.030;38.710;2023-06-10T13:33:58;4.63;;;0.68;;
74543;SDS011;63016;55.030;38.710;2023-06-10T13:36:24;2.38;;;0.57;;
74543;SDS011;63016;55.030;38.710;2023-06-10T13:38:49;2.17;;;0.70;;
74543;SDS011;63016;55.030;38.710;2023-06-10T13:41:15;3.17;;;0.60;;
74543;SDS011;63016;55.030;38.710;2023-06-10T13:43:40;3.78;;;0.70;;
74543;SDS011;63016;55.030;38.710;2023-06-10T13:46:06;0.98;;;0.60;;
74543;SDS011;63016;55.030;38.710;2023-06-10T13:48:32;3.72;;;0.80;;
74543;SDS011;63016;55.030;38.710;2023-06-10T13:50:58;4.57;;;0.60;;
74543;SDS011;63016;55.030;38.710;2023-06-10T13:53:25;1.80;;;0.60;;
74543;SDS011;63016;55.030;38.710;2023-06-10T13:55:50;1.05;;;0.55;;
74543;SDS011;63016;55.030;38.710;2023-06-10T13:58:16;3.40;;;0.50;;
74543;SDS011;63016;55.030;38.710;2023-06-10T14:00:41;2.20;;;0.50;;
74543;SDS011;63016;55.030;38.710;2023-06-10T14:03:07;4.35;;;0.60;;
74543;SDS011;63016;55.030;38.710;2023-06-10T14:05:32;0.70;;;0.50;;
74543;SDS011;63016;55.030;38.710;2023-06-10T14:07:58;5.88;;;0.65;;
74543;SDS011;63016;55.030;38.710;2023-06-10T14:10:24;4.55;;;1.00;;
74543;SDS011;63016;55.030;38.710;2023-06-10T14:12:49;3.45;;;1.10;;
74543;SDS011;63016;55.030;38.710;2023-06-10T14:15:15;1.13;;;0.82;;
74543;SDS011;63016;55.030;38.710;2023-06-10T14:17:41;2.05;;;0.70;;
74543;SDS011;63016;55.030;38.710;2023-06-10T14:20:06;2.75;;;1.50;;
74543;SDS011;63016;55.030;38.710;2023-06-10T14:22:32;1.35;;;0.80;;
74543;SDS011;63016;55.030;38.710;2023-06-10T14:24:58;5.32;;;1.05;;
74543;SDS011;63016;55.030;38.710;2023-06-10T14:27:23;1.85;;;0.80;;
74543;SDS011;63016;55.030;38.710;2023-06-10T14:29:49;3.38;;;0.70;;
74543;SDS011;63016;55.030;38.710;2023-06-10T14:32:14;4.72;;;0.65;;
74543;SDS011;63016;55.030;38.710;2023-06-10T14:34:39;1.95;;;0.50;;
74543;SDS011;63016;55.030;38.710;2023-06-10T14:37:07;4.10;;;0.60;;
74543;SDS011;63016;55.030;38.710;2023-06-10T14:39:32;5.55;;;0.75;;
74543;SDS011;63016;55.030;38.710;2023-06-10T14:41:58;1.58;;;0.60;;
74543;SDS011;63016;55.030;38.710;2023-06-10T14:44:24;1.05;;;0.65;;
74543;SDS011;63016;55.030;38.710;2023-06-10T14:46:49;3.03;;;0.70;;
74543;SDS011;63016;55.030;38.710;2023-06-10T14:49:14;1.20;;;0.47;;